Time;durP1;ratioP1;P1;durP2;ratioP2;P2;SDS_P1;SDS_P2;PMS_P1;PMS_P2;Temp;Humidity;BMP_temperature;BMP_pressure;BME280_temperature;BME280_humidity;BME280_pressure;Samples;Min_cycle;Max_cycle;Signal;HPM_P1;HPM_P2
2023/06/09 00:01:26;;;;;;;7.53;6.85;;;18.50;71.20;;;;;;5018000;28;20744;-88
2023/06/09 00:03:52;;;;;;;7.53;6.70;;;18.60;70.70;;;;;;5036612;28;20556;-90
2023/06/09 00:06:22;;;;;;;7.65;7.00;;;18.50;70.50;;;;;;5035715;28;20199;-90
2023/06/09 00:08:51;;;;;;;7.85;7.20;;;18.50;70.60;;;;;;5036147;28;20197;-88
2023/06/09 00:11:18;;;;;;;7.72;7.13;;;18.50;70.70;;;;;;5036327;28;20197;-89
2023/06/09 00:13:44;;;;;;;9.95;7.80;;;18.50;71.00;;;;;;5037565;28;20635;-90
2023/06/09 00:16:11;;;;;;;8.15;7.20;;;18.50;70.70;;;;;;5037153;28;20263;-88
2023/06/09 00:18:40;;;;;;;7.85;7.18;;;18.50;70.40;;;;;;5036879;28;20211;-89
2023/06/09 00:21:06;;;;;;;7.97;7.28;;;18.60;70.40;;;;;;5036253;28;20553;-89
2023/06/09 00:23:32;;;;;;;8.77;7.25;;;18.50;70.40;;;;;;5036269;28;20238;-88
2023/06/09 00:25:57;;;;;;;8.13;7.53;;;18.40;71.10;;;;;;5000631;28;20598;-87
2023/06/09 00:28:23;;;;;;;8.10;7.50;;;18.30;71.60;;;;;;5018377;28;20220;-91
2023/06/09 00:30:50;;;;;;;7.80;7.20;;;18.40;71.00;;;;;;5033201;28;20269;-89
2023/06/09 00:33:15;;;;;;;7.53;7.03;;;18.50;70.40;;;;;;5044459;28;20188;-88
2023/06/09 00:35:41;;;;;;;8.63;8.02;;;18.70;70.00;;;;;;5035011;28;20184;-89
2023/06/09 00:38:06;;;;;;;8.82;8.02;;;18.80;68.80;;;;;;5014791;28;20241;-91
2023/06/09 00:40:32;;;;;;;8.27;7.57;;;18.60;69.40;;;;;;5026875;28;20186;-89
2023/06/09 00:42:59;;;;;;;8.00;7.30;;;18.50;69.60;;;;;;5015120;28;20216;-89
2023/06/09 00:45:24;;;;;;;8.50;7.90;;;18.50;70.10;;;;;;5028618;28;20398;-89
2023/06/09 00:47:51;;;;;;;8.48;7.78;;;18.60;69.40;;;;;;5034339;28;20683;-89
2023/06/09 00:50:19;;;;;;;8.65;7.95;;;18.40;70.10;;;;;;5034916;28;20176;-89
2023/06/09 00:52:46;;;;;;;8.32;7.65;;;18.30;71.00;;;;;;5036125;28;20188;-87
2023/06/09 00:55:13;;;;;;;8.38;7.68;;;18.20;70.80;;;;;;5035651;28;20719;-89
2023/06/09 00:57:39;;;;;;;8.30;7.60;;;18.20;71.20;;;;;;5035420;28;20226;-87
2023/06/09 01:00:10;;;;;;;7.75;7.15;;;18.20;71.50;;;;;;5035334;28;20213;-90
2023/06/09 01:02:37;;;;;;;7.72;7.13;;;18.20;71.30;;;;;;5036218;28;20168;-87
2023/06/09 01:05:05;;;;;;;8.07;7.47;;;18.10;71.50;;;;;;5036927;28;20228;-89
2023/06/09 01:07:38;;;;;;;9.50;7.75;;;18.00;72.30;;;;;;5034711;28;20248;-88
2023/06/09 01:10:17;;;;;;;8.23;7.63;;;17.90;72.80;;;;;;5036040;28;20328;-89
2023/06/09 01:13:07;;;;;;;8.05;7.35;;;18.00;72.80;;;;;;5037677;28;20230;-89
2023/06/09 01:15:36;;;;;;;8.18;7.55;;;18.00;72.30;;;;;;5035101;28;20185;-89
2023/06/09 01:18:08;;;;;;;8.18;7.50;;;18.00;72.40;;;;;;5035258;28;20196;-90
2023/06/09 01:20:57;;;;;;;9.63;7.90;;;18.10;72.20;;;;;;5034473;28;20190;-88
2023/06/09 01:23:32;;;;;;;8.77;7.77;;;17.90;72.80;;;;;;5034856;28;20210;-90
2023/06/09 01:25:59;;;;;;;8.32;7.45;;;17.80;73.50;;;;;;5035402;28;20182;-89
2023/06/09 01:28:28;;;;;;;8.37;7.57;;;17.70;74.00;;;;;;5042612;28;20258;-89
2023/06/09 01:30:55;;;;;;;8.70;8.00;;;17.60;74.70;;;;;;5049684;28;20214;-89
2023/06/09 01:33:24;;;;;;;8.60;7.93;;;17.60;74.80;;;;;;5053949;28;20201;-91
2023/06/09 01:35:51;;;;;;;8.25;7.65;;;17.70;74.80;;;;;;5053035;28;20188;-89
2023/06/09 01:38:20;;;;;;;8.33;7.73;;;17.70;75.00;;;;;;5055957;28;20204;-91
2023/06/09 01:40:46;;;;;;;8.63;7.93;;;17.60;75.00;;;;;;5058349;28;20181;-88
2023/06/09 01:43:12;;;;;;;8.37;7.67;;;17.50;75.60;;;;;;5046796;28;20197;-89
2023/06/09 01:45:38;;;;;;;7.97;7.27;;;17.40;77.10;;;;;;5039401;28;20185;-88
2023/06/09 01:48:20;;;;;;;8.90;8.00;;;17.40;76.60;;;;;;5038370;28;20211;-89
2023/06/09 01:50:55;;;;;;;8.47;7.77;;;17.20;77.30;;;;;;5038137;28;20173;-89
2023/06/09 01:53:28;;;;;;;9.10;8.30;;;17.10;78.10;;;;;;5038137;28;20649;-89
2023/06/09 01:56:27;;;;;;;8.27;7.57;;;17.10;78.50;;;;;;5038175;28;20291;-90
2023/06/09 01:58:57;;;;;;;8.40;7.70;;;17.20;78.00;;;;;;5038623;28;20551;-88
2023/06/09 02:01:24;;;;;;;9.17;8.30;;;17.20;77.90;;;;;;5038890;28;20213;-89
2023/06/09 02:03:53;;;;;;;8.40;7.80;;;17.20;77.90;;;;;;5039249;28;20181;-87
2023/06/09 02:06:20;;;;;;;8.70;7.90;;;17.20;78.00;;;;;;5039522;28;20194;-88
2023/06/09 02:08:46;;;;;;;8.93;8.23;;;17.10;78.70;;;;;;5039155;28;20647;-89
2023/06/09 02:11:12;;;;;;;9.80;8.87;;;16.90;79.50;;;;;;5038672;28;20190;-87
2023/06/09 02:13:38;;;;;;;8.57;7.87;;;16.90;79.70;;;;;;5037529;28;20187;-89
2023/06/09 02:16:04;;;;;;;9.77;8.87;;;16.90;80.10;;;;;;5038889;28;20199;-88
2023/06/09 02:18:32;;;;;;;8.53;7.83;;;16.80;80.30;;;;;;5037673;28;20212;-87
2023/06/09 02:20:58;;;;;;;8.43;7.80;;;16.80;80.40;;;;;;5037721;28;20192;-89
2023/06/09 02:23:24;;;;;;;8.77;8.00;;;16.90;80.50;;;;;;5041520;28;20188;-89
2023/06/09 02:25:50;;;;;;;8.77;7.97;;;16.90;80.40;;;;;;5045437;28;20204;-87
2023/06/09 02:28:16;;;;;;;8.37;7.60;;;16.80;80.70;;;;;;5035433;28;20266;-88
2023/06/09 02:30:43;;;;;;;8.33;7.63;;;16.70;81.40;;;;;;5036701;28;20176;-89
2023/06/09 02:33:10;;;;;;;9.13;8.33;;;16.70;81.50;;;;;;5019149;28;20181;-90
2023/06/09 02:35:36;;;;;;;9.43;8.60;;;16.70;82.10;;;;;;5020682;28;20232;-89
2023/06/09 02:38:07;;;;;;;8.97;8.27;;;16.70;81.80;;;;;;5037188;28;20208;-88
2023/06/09 02:40:33;;;;;;;9.33;8.40;;;16.70;81.50;;;;;;5038386;28;20167;-87
2023/06/09 02:42:59;;;;;;;9.73;8.70;;;16.60;81.70;;;;;;5038930;28;20185;-89
2023/06/09 02:45:25;;;;;;;9.00;8.20;;;16.50;82.50;;;;;;5038565;28;20654;-89
2023/06/09 02:47:51;;;;;;;9.03;8.20;;;16.50;82.80;;;;;;5038372;28;20227;-89
2023/06/09 02:50:17;;;;;;;9.10;8.40;;;16.40;83.20;;;;;;5038035;28;20211;-88
2023/06/09 02:52:44;;;;;;;9.50;8.63;;;16.50;83.40;;;;;;5038377;28;20173;-89
2023/06/09 02:55:11;;;;;;;10.17;8.90;;;16.50;83.50;;;;;;5038354;28;20190;-90
2023/06/09 02:57:37;;;;;;;9.17;8.47;;;16.60;83.40;;;;;;5034601;28;20229;-88
2023/06/09 03:00:04;;;;;;;9.17;8.37;;;16.70;82.90;;;;;;5037965;28;20188;-87
2023/06/09 03:02:30;;;;;;;9.37;8.67;;;16.70;83.00;;;;;;5038058;28;20185;-89
2023/06/09 03:04:56;;;;;;;8.83;8.23;;;16.70;83.10;;;;;;5037396;28;20738;-89
2023/06/09 03:07:22;;;;;;;9.23;8.53;;;16.70;83.00;;;;;;5038685;28;20284;-88
2023/06/09 03:09:48;;;;;;;9.73;8.83;;;16.70;83.00;;;;;;5037777;28;20264;-88
2023/06/09 03:12:14;;;;;;;9.23;8.47;;;16.70;83.40;;;;;;5037305;28;20215;-89
2023/06/09 03:14:39;;;;;;;9.63;8.80;;;16.60;83.30;;;;;;5037598;28;20679;-89
2023/06/09 03:17:05;;;;;;;10.13;9.03;;;16.60;83.50;;;;;;5018622;28;20579;-89
2023/06/09 03:19:31;;;;;;;9.30;8.60;;;16.60;83.90;;;;;;5040750;28;20247;-90
2023/06/09 03:21:57;;;;;;;10.07;8.80;;;16.60;84.10;;;;;;5046658;28;20177;-93
2023/06/09 03:24:26;;;;;;;9.70;8.90;;;16.50;84.50;;;;;;5055637;28;20247;-90
2023/06/09 03:26:52;;;;;;;9.80;8.90;;;16.60;84.60;;;;;;5049446;28;20196;-87
2023/06/09 03:29:19;;;;;;;9.70;9.00;;;16.50;84.30;;;;;;5036712;28;20215;-89
2023/06/09 03:31:45;;;;;;;9.40;8.67;;;16.60;84.60;;;;;;5037290;28;20176;-89
2023/06/09 03:34:10;;;;;;;10.00;9.20;;;16.50;84.60;;;;;;5038257;28;20179;-88
2023/06/09 03:36:36;;;;;;;10.50;9.53;;;16.50;84.90;;;;;;5039943;28;20172;-90
2023/06/09 03:39:03;;;;;;;9.60;8.80;;;16.40;85.40;;;;;;5040266;28;20542;-88
2023/06/09 03:41:29;;;;;;;9.20;8.47;;;16.40;85.50;;;;;;5036932;28;20249;-89
2023/06/09 03:43:54;;;;;;;9.47;8.70;;;16.30;86.00;;;;;;5037641;28;20264;-89
2023/06/09 03:48:52;;;;;;;10.67;9.50;;;16.20;86.60;;;;;;5061533;23;20321;-90
2023/06/09 03:51:19;;;;;;;10.43;9.53;;;16.20;87.20;;;;;;5056769;28;20179;-88
2023/06/09 03:53:45;;;;;;;10.43;9.63;;;16.10;87.50;;;;;;5057029;28;20188;-88
2023/06/09 03:56:11;;;;;;;10.27;9.47;;;16.20;87.50;;;;;;5047930;28;20186;-89
2023/06/09 03:58:37;;;;;;;10.33;9.43;;;16.20;87.50;;;;;;5056622;28;20199;-88
2023/06/09 04:01:03;;;;;;;10.37;9.27;;;16.10;88.10;;;;;;5038184;28;20256;-88
2023/06/09 04:03:28;;;;;;;10.30;9.50;;;16.10;87.80;;;;;;5036176;28;20199;-88
2023/06/09 04:05:54;;;;;;;10.40;9.60;;;16.10;88.40;;;;;;5036286;28;20188;-88
2023/06/09 04:08:20;;;;;;;10.20;9.40;;;16.10;88.70;;;;;;5036523;28;20741;-89
2023/06/09 04:10:45;;;;;;;11.00;9.97;;;16.00;89.00;;;;;;5035725;28;20169;-89
2023/06/09 04:13:11;;;;;;;10.20;9.40;;;16.00;88.70;;;;;;5038551;28;20178;-91
2023/06/09 04:15:37;;;;;;;9.90;9.00;;;16.10;88.30;;;;;;5034730;28;20651;-88
2023/06/09 04:18:03;;;;;;;10.07;9.27;;;16.10;88.40;;;;;;5044525;28;20201;-88
2023/06/09 04:20:29;;;;;;;11.00;10.00;;;16.10;87.90;;;;;;5029954;28;20213;-89
2023/06/09 04:22:55;;;;;;;10.57;9.63;;;16.10;88.60;;;;;;5017359;28;20198;-87
2023/06/09 04:25:25;;;;;;;10.27;9.37;;;16.00;89.10;;;;;;5016788;28;20243;-89
2023/06/09 04:28:03;;;;;;;10.33;9.40;;;16.10;89.00;;;;;;5015572;28;20235;-88
2023/06/09 04:30:29;;;;;;;10.63;9.60;;;16.20;89.50;;;;;;5034167;28;20245;-88
2023/06/09 04:33:01;;;;;;;10.80;9.80;;;16.20;88.70;;;;;;5035664;28;20184;-89
2023/06/09 04:35:27;;;;;;;10.73;9.83;;;16.20;88.50;;;;;;5025305;28;20189;-87
2023/06/09 04:37:53;;;;;;;10.40;9.43;;;16.30;88.40;;;;;;5015287;28;20568;-88
2023/06/09 04:40:23;;;;;;;11.53;10.63;;;16.30;88.10;;;;;;5016343;28;20182;-88
2023/06/09 04:42:55;;;;;;;10.73;9.93;;;16.20;88.30;;;;;;5017245;28;20259;-87
2023/06/09 04:45:27;;;;;;;11.63;10.63;;;16.30;88.70;;;;;;5036083;28;20272;-86
2023/06/09 04:47:57;;;;;;;11.90;10.90;;;16.30;88.70;;;;;;5035477;28;20220;-87
2023/06/09 04:50:23;;;;;;;11.27;10.37;;;16.30;88.90;;;;;;5034971;28;20211;-87
2023/06/09 04:52:49;;;;;;;10.10;9.30;;;16.40;88.50;;;;;;5036598;28;20597;-87
2023/06/09 04:55:15;;;;;;;11.87;10.93;;;16.30;88.90;;;;;;5035364;28;20177;-87
2023/06/09 04:57:40;;;;;;;11.47;10.47;;;16.40;88.60;;;;;;5049066;28;20200;-86
2023/06/09 05:00:17;;;;;;;11.83;10.93;;;16.50;88.30;;;;;;5056369;28;20520;-89
2023/06/09 05:02:44;;;;;;;11.70;9.90;;;16.50;88.10;;;;;;5055526;28;20179;-88
2023/06/09 05:05:10;;;;;;;10.00;9.20;;;16.60;88.10;;;;;;5042723;28;21570;-88
2023/06/09 05:07:39;;;;;;;10.80;10.00;;;16.60;87.60;;;;;;5032314;28;20208;-87
2023/06/09 05:10:09;;;;;;;11.27;10.27;;;16.70;87.40;;;;;;5034650;28;20186;-89
2023/06/09 05:12:38;;;;;;;11.53;10.43;;;16.60;87.70;;;;;;5035700;28;20189;-87
2023/06/09 05:15:05;;;;;;;11.37;10.47;;;16.60;87.90;;;;;;5039518;28;20211;-88
2023/06/09 05:17:33;;;;;;;10.93;10.10;;;16.60;88.10;;;;;;5037706;28;20234;-89
2023/06/09 05:19:59;;;;;;;25.43;12.77;;;16.60;87.70;;;;;;5019309;28;20199;-87
2023/06/09 05:22:24;;;;;;;11.03;10.13;;;16.70;88.00;;;;;;5043907;28;20192;-88
2023/06/09 05:24:51;;;;;;;11.60;10.60;;;16.80;87.40;;;;;;5037930;28;20192;-87
2023/06/09 05:27:16;;;;;;;11.20;10.30;;;16.80;87.20;;;;;;5038297;28;20267;-86
2023/06/09 05:29:42;;;;;;;13.57;10.70;;;16.90;87.30;;;;;;5038768;28;20675;-90
2023/06/09 05:32:08;;;;;;;11.17;10.03;;;17.00;86.50;;;;;;5037210;28;20611;-87
2023/06/09 05:34:33;;;;;;;11.40;10.50;;;17.10;86.10;;;;;;5037121;28;20202;-90
2023/06/09 05:36:59;;;;;;;11.53;10.53;;;17.20;85.30;;;;;;5040052;28;20305;-87
2023/06/09 05:39:24;;;;;;;11.57;10.67;;;17.30;85.20;;;;;;5039134;28;20455;-87
2023/06/09 05:41:50;;;;;;;11.00;10.10;;;17.50;84.80;;;;;;5039868;28;20311;-87
2023/06/09 05:44:16;;;;;;;11.53;10.57;;;17.60;84.00;;;;;;5039549;28;20663;-88
2023/06/09 05:46:41;;;;;;;11.50;10.50;;;17.60;83.80;;;;;;5039771;28;20182;-87
2023/06/09 05:49:07;;;;;;;11.33;10.47;;;17.50;83.60;;;;;;5039212;28;20205;-88
2023/06/09 05:51:33;;;;;;;11.27;10.37;;;17.50;84.20;;;;;;5021047;28;20203;-88
2023/06/09 05:53:59;;;;;;;11.53;10.63;;;17.40;85.10;;;;;;5039928;28;20177;-87
2023/06/09 05:56:25;;;;;;;11.53;10.60;;;17.40;85.10;;;;;;5040978;28;20180;-87
2023/06/09 05:58:51;;;;;;;11.90;10.87;;;17.50;85.00;;;;;;5039591;28;20474;-87
2023/06/09 06:01:17;;;;;;;11.23;10.23;;;17.50;84.50;;;;;;5037839;28;20191;-87
2023/06/09 06:03:44;;;;;;;12.63;11.63;;;17.60;84.20;;;;;;5038865;28;20198;-85
2023/06/09 06:06:10;;;;;;;11.70;10.70;;;17.60;84.10;;;;;;5038801;28;20225;-88
2023/06/09 06:08:38;;;;;;;11.37;10.57;;;17.60;84.00;;;;;;5042680;28;20737;-89
2023/06/09 06:11:04;;;;;;;10.63;9.70;;;17.70;83.70;;;;;;5040214;28;20188;-87
2023/06/09 06:13:30;;;;;;;10.73;9.83;;;17.70;83.70;;;;;;5038221;28;20193;-87
2023/06/09 06:15:58;;;;;;;11.27;10.13;;;17.80;82.60;;;;;;5039502;28;20320;-88
2023/06/09 06:18:24;;;;;;;11.73;10.77;;;17.90;82.90;;;;;;5038953;28;20256;-88
2023/06/09 06:20:49;;;;;;;12.13;11.23;;;18.00;82.60;;;;;;5020565;28;20313;-87
2023/06/09 06:23:16;;;;;;;11.60;10.70;;;18.00;82.20;;;;;;5041472;28;20304;-86
2023/06/09 06:25:41;;;;;;;11.63;10.77;;;18.10;82.60;;;;;;5037423;28;20178;-87
2023/06/09 06:28:07;;;;;;;11.80;10.63;;;18.20;81.40;;;;;;5037849;28;20211;-87
2023/06/09 06:30:33;;;;;;;11.40;10.50;;;18.40;80.80;;;;;;5038691;28;20194;-87
2023/06/09 06:32:59;;;;;;;11.20;10.07;;;18.50;79.80;;;;;;5039667;28;20198;-88
2023/06/09 06:35:25;;;;;;;11.25;10.20;;;18.60;80.10;;;;;;5039763;28;20212;-89
2023/06/09 06:37:51;;;;;;;11.65;10.68;;;18.70;79.80;;;;;;5039898;28;20263;-88
2023/06/09 06:40:17;;;;;;;10.95;10.15;;;18.80;79.60;;;;;;5039230;28;20590;-87
2023/06/09 06:42:43;;;;;;;11.15;10.32;;;19.00;79.00;;;;;;5040538;28;20241;-88
2023/06/09 06:45:09;;;;;;;11.70;10.80;;;19.10;78.20;;;;;;5038434;28;20180;-88
2023/06/09 06:47:34;;;;;;;11.13;10.23;;;19.20;77.40;;;;;;5039155;28;20219;-87
2023/06/09 06:50:00;;;;;;;10.73;9.85;;;19.20;77.60;;;;;;5039086;28;20186;-89
2023/06/09 06:52:26;;;;;;;11.05;10.15;;;19.40;77.60;;;;;;5039259;28;20184;-88
2023/06/09 06:54:51;;;;;;;11.10;10.20;;;19.60;76.20;;;;;;5039977;28;20173;-88
2023/06/09 06:57:17;;;;;;;10.07;9.38;;;19.60;75.50;;;;;;5038535;28;20726;-88
2023/06/09 06:59:43;;;;;;;11.07;10.13;;;19.60;76.20;;;;;;5039277;28;20227;-88
2023/06/09 07:02:09;;;;;;;10.63;9.80;;;19.70;75.80;;;;;;5019716;28;20196;-89
2023/06/09 07:04:36;;;;;;;10.95;9.95;;;19.90;74.90;;;;;;5044031;28;20352;-87
2023/06/09 07:07:02;;;;;;;11.57;9.38;;;19.90;74.30;;;;;;5049546;28;20206;-88
2023/06/09 07:09:28;;;;;;;10.27;9.48;;;20.10;74.20;;;;;;5024046;28;20228;-88
2023/06/09 07:11:53;;;;;;;11.10;10.20;;;20.30;73.60;;;;;;5037907;28;20662;-88
2023/06/09 07:14:19;;;;;;;10.23;9.43;;;20.40;72.20;;;;;;5039026;28;20241;-88
2023/06/09 07:16:45;;;;;;;10.15;9.35;;;20.40;72.20;;;;;;5038505;28;20205;-88
2023/06/09 07:19:11;;;;;;;10.93;10.13;;;20.30;73.30;;;;;;5039368;28;20231;-87
2023/06/09 07:21:37;;;;;;;9.63;8.95;;;20.40;73.50;;;;;;5036850;28;20187;-89
2023/06/09 07:24:03;;;;;;;10.32;9.45;;;20.60;73.20;;;;;;5039055;28;20172;-88
2023/06/09 07:26:29;;;;;;;10.20;9.40;;;20.70;71.80;;;;;;5041869;28;20189;-86
2023/06/09 07:28:55;;;;;;;26.73;11.10;;;20.90;71.60;;;;;;5039581;28;20212;-87
2023/06/09 07:31:21;;;;;;;10.32;9.52;;;21.00;71.20;;;;;;5040756;28;20182;-87
2023/06/09 07:33:47;;;;;;;10.30;9.50;;;21.20;70.80;;;;;;5040955;28;20176;-87
2023/06/09 07:36:13;;;;;;;9.73;8.95;;;21.30;69.90;;;;;;5023633;28;20167;-86
2023/06/09 07:38:39;;;;;;;11.10;8.98;;;21.40;69.60;;;;;;5026250;28;20210;-86
2023/06/09 07:41:05;;;;;;;10.32;9.18;;;21.60;69.50;;;;;;5039079;28;20175;-87
2023/06/09 07:43:31;;;;;;;9.73;8.98;;;21.70;69.50;;;;;;5038861;28;20186;-87
2023/06/09 07:45:56;;;;;;;10.30;9.40;;;21.80;68.70;;;;;;5039132;28;20671;-88
2023/06/09 07:48:22;;;;;;;9.85;9.15;;;22.00;66.90;;;;;;5038805;28;20347;-88
2023/06/09 07:50:48;;;;;;;9.23;8.52;;;21.90;67.10;;;;;;5038251;28;20188;-89
2023/06/09 07:53:13;;;;;;;10.95;9.82;;;22.10;67.70;;;;;;5021361;28;20262;-87
2023/06/09 07:55:39;;;;;;;10.50;9.50;;;22.20;66.10;;;;;;5038731;28;20672;-88
2023/06/09 07:58:05;;;;;;;10.32;9.52;;;22.30;65.80;;;;;;5054926;28;20210;-87
2023/06/09 08:00:30;;;;;;;9.77;8.98;;;22.40;65.60;;;;;;5051456;28;20188;-86
2023/06/09 08:03:01;;;;;;;9.77;9.02;;;22.40;64.30;;;;;;5046168;28;20192;-88
2023/06/09 08:05:27;;;;;;;9.95;9.25;;;22.50;65.10;;;;;;5057533;28;20209;-87
2023/06/09 08:07:52;;;;;;;10.25;9.30;;;22.60;65.60;;;;;;5057374;28;20212;-89
2023/06/09 08:10:18;;;;;;;9.68;8.93;;;22.60;63.60;;;;;;5040080;28;20187;-87
2023/06/09 08:12:44;;;;;;;9.98;9.25;;;22.80;64.20;;;;;;5057207;28;20200;-87
2023/06/09 08:15:10;;;;;;;9.98;9.07;;;22.90;62.90;;;;;;5057740;28;20175;-87
2023/06/09 08:17:36;;;;;;;9.45;8.85;;;23.10;63.50;;;;;;5057057;28;20278;-87
2023/06/09 08:20:03;;;;;;;9.20;8.60;;;23.20;61.60;;;;;;5043457;28;20188;-87
2023/06/09 08:22:30;;;;;;;13.32;10.38;;;23.30;61.30;;;;;;5037159;28;20555;-86
2023/06/09 08:24:56;;;;;;;10.48;9.57;;;23.50;61.10;;;;;;5040126;28;20176;-87
2023/06/09 08:27:22;;;;;;;9.50;8.70;;;23.60;60.20;;;;;;5038470;28;20208;-87
2023/06/09 08:29:49;;;;;;;10.13;9.43;;;23.70;59.70;;;;;;5038785;28;20193;-88
2023/06/09 08:32:15;;;;;;;10.18;9.25;;;23.70;59.30;;;;;;5036776;28;20184;-87
2023/06/09 08:34:41;;;;;;;9.48;8.77;;;23.90;59.10;;;;;;5035733;28;20223;-87
2023/06/09 08:37:08;;;;;;;9.85;9.23;;;24.00;58.60;;;;;;5036667;28;20197;-88
2023/06/09 08:39:33;;;;;;;9.77;9.18;;;24.20;58.00;;;;;;5037609;28;20180;-87
2023/06/09 08:42:09;;;;;;;9.85;9.07;;;24.30;56.90;;;;;;5035322;28;20180;-87
2023/06/09 08:44:40;;;;;;;9.52;8.93;;;24.20;57.20;;;;;;5037404;28;20210;-88
2023/06/09 08:47:07;;;;;;;9.32;8.70;;;24.30;57.00;;;;;;5019656;28;20208;-88
2023/06/09 08:49:34;;;;;;;9.65;9.05;;;24.50;56.40;;;;;;5041284;28;20686;-87
2023/06/09 08:52:02;;;;;;;9.65;8.90;;;24.50;56.10;;;;;;5040256;28;20212;-88
2023/06/09 08:54:28;;;;;;;10.27;9.48;;;24.80;56.20;;;;;;5039431;28;20272;-88
2023/06/09 08:56:54;;;;;;;9.95;9.05;;;25.00;55.10;;;;;;5040431;28;20236;-88
2023/06/09 08:59:21;;;;;;;10.60;9.90;;;25.20;54.50;;;;;;5030062;28;20315;-87
2023/06/09 09:01:49;;;;;;;9.18;8.48;;;25.30;53.10;;;;;;5038913;28;20176;-89
2023/06/09 09:04:16;;;;;;;9.27;8.68;;;25.30;52.20;;;;;;5039362;28;20173;-88
2023/06/09 09:06:42;;;;;;;9.88;9.27;;;25.60;51.10;;;;;;5039102;28;20180;-88
2023/06/09 09:09:08;;;;;;;10.32;9.52;;;25.60;49.80;;;;;;5038543;28;20197;-88
2023/06/09 09:11:35;;;;;;;9.20;8.50;;;25.70;49.60;;;;;;5037334;28;20535;-88
2023/06/09 09:14:10;;;;;;;9.35;8.75;;;25.90;48.30;;;;;;5039311;28;20717;-87
2023/06/09 09:16:36;;;;;;;9.20;8.60;;;26.10;48.30;;;;;;5038300;28;20227;-87
2023/06/09 09:19:03;;;;;;;9.30;8.63;;;26.20;47.30;;;;;;5038997;28;20180;-89
2023/06/09 09:21:29;;;;;;;9.73;9.02;;;26.40;46.20;;;;;;5038220;28;20189;-86
2023/06/09 09:23:58;;;;;;;9.93;9.32;;;26.40;45.40;;;;;;5038215;28;20193;-87
2023/06/09 09:26:31;;;;;;;9.35;8.68;;;26.60;45.80;;;;;;5039535;28;20177;-86
2023/06/09 09:29:08;;;;;;;8.90;8.20;;;26.70;45.40;;;;;;5038641;28;20614;-86
2023/06/09 09:31:37;;;;;;;9.27;8.68;;;26.80;45.70;;;;;;5040996;28;20211;-88
2023/06/09 09:34:03;;;;;;;9.57;9.05;;;27.00;42.90;;;;;;5040750;28;20169;-88
2023/06/09 09:36:28;;;;;;;9.25;8.70;;;27.20;42.80;;;;;;5040288;28;20251;-88
2023/06/09 09:38:56;;;;;;;9.38;8.77;;;27.20;42.60;;;;;;5038560;28;20176;-88
2023/06/09 09:41:22;;;;;;;9.95;9.25;;;27.30;42.10;;;;;;5041302;28;20185;-90
2023/06/09 09:43:54;;;;;;;10.18;9.32;;;27.50;40.60;;;;;;5039617;28;20209;-88
2023/06/09 09:46:20;;;;;;;9.68;8.93;;;27.80;40.00;;;;;;5022661;28;20192;-89
2023/06/09 09:48:47;;;;;;;9.85;9.35;;;28.10;38.90;;;;;;5027362;28;20224;-87
2023/06/09 09:51:13;;;;;;;9.93;9.23;;;28.20;37.90;;;;;;5038465;28;20300;-88
2023/06/09 09:53:39;;;;;;;10.00;9.40;;;28.20;38.10;;;;;;5038978;28;20212;-88
2023/06/09 09:56:05;;;;;;;9.27;8.63;;;28.30;38.10;;;;;;5047413;28;20169;-89
2023/06/09 09:58:35;;;;;;;10.75;10.15;;;28.30;38.00;;;;;;5037544;28;20209;-91
2023/06/09 10:01:11;;;;;;;10.40;9.48;;;28.30;37.10;;;;;;5037485;28;20188;-89
2023/06/09 10:03:42;;;;;;;10.43;9.82;;;28.50;37.10;;;;;;5037837;28;20194;-88
2023/06/09 10:06:10;;;;;;;10.73;10.23;;;28.50;36.20;;;;;;5039130;28;20185;-88
2023/06/09 10:08:40;;;;;;;11.25;10.65;;;28.60;36.50;;;;;;5027303;28;20553;-87
2023/06/09 10:11:07;;;;;;;11.27;10.65;;;28.80;37.00;;;;;;5017844;28;20197;-87
2023/06/09 10:13:33;;;;;;;13.15;12.52;;;28.90;37.20;;;;;;5016983;28;20180;-86
2023/06/09 10:15:59;;;;;;;14.45;13.85;;;29.10;35.40;;;;;;5017856;28;20273;-88
2023/06/09 10:18:25;;;;;;;14.63;13.93;;;29.40;35.40;;;;;;5017671;28;20700;-88
2023/06/09 10:20:52;;;;;;;15.40;14.70;;;29.50;35.70;;;;;;5019554;28;20181;-88
2023/06/09 10:23:19;;;;;;;15.30;14.60;;;29.70;35.40;;;;;;5038312;28;20192;-88
2023/06/09 10:25:48;;;;;;;15.77;14.90;;;29.40;35.80;;;;;;5038617;28;20177;-90
2023/06/09 10:28:16;;;;;;;14.50;13.60;;;29.20;35.70;;;;;;5038858;28;20299;-88
2023/06/09 10:30:42;;;;;;;14.80;14.05;;;29.20;35.70;;;;;;5025656;28;20268;-89
2023/06/09 10:33:10;;;;;;;13.98;13.18;;;29.20;35.90;;;;;;5028874;28;20180;-88
2023/06/09 10:35:38;;;;;;;14.77;13.88;;;29.40;35.20;;;;;;5031031;28;20212;-89
2023/06/09 10:38:28;;;;;;;14.25;13.55;;;29.60;35.50;;;;;;5032991;28;20200;-91
2023/06/09 10:41:07;;;;;;;15.13;14.43;;;29.80;34.50;;;;;;5029417;28;20177;-87
2023/06/09 10:43:54;;;;;;;16.02;15.23;;;29.60;34.90;;;;;;5029786;28;20177;-89
2023/06/09 10:46:44;;;;;;;16.25;15.45;;;29.60;34.20;;;;;;5034178;28;20184;-89
2023/06/09 10:49:36;;;;;;;17.27;16.52;;;30.10;34.20;;;;;;5034680;28;20204;-88
2023/06/09 10:52:45;;;;;;;17.00;16.10;;;30.20;33.20;;;;;;5028571;28;20655;-88
2023/06/09 10:55:15;;;;;;;17.95;17.15;;;30.30;32.80;;;;;;4997002;28;20219;-89
2023/06/09 10:57:42;;;;;;;18.10;17.20;;;30.70;32.40;;;;;;5032908;28;20276;-88
2023/06/09 11:00:11;;;;;;;18.20;17.50;;;30.80;32.00;;;;;;5029901;28;20375;-88
2023/06/09 11:02:42;;;;;;;18.83;17.92;;;30.90;32.20;;;;;;5020491;28;20686;-89
2023/06/09 11:05:09;;;;;;;18.33;17.48;;;30.80;32.20;;;;;;5021849;28;20180;-90
2023/06/09 11:07:49;;;;;;;16.88;16.02;;;30.80;30.10;;;;;;5027828;28;20221;-88
2023/06/09 11:10:18;;;;;;;17.48;16.67;;;31.10;29.40;;;;;;5027206;28;20185;-89
2023/06/09 11:12:46;;;;;;;18.00;17.30;;;31.40;29.30;;;;;;5029274;28;20228;-88
2023/06/09 11:15:15;;;;;;;19.50;18.10;;;31.30;29.20;;;;;;5029315;28;20173;-90
2023/06/09 11:17:43;;;;;;;19.20;18.30;;;31.20;28.60;;;;;;5030065;28;20226;-88
2023/06/09 11:20:08;;;;;;;;;;;;;;;;;;;;;
2023/06/09 11:23:01;;;;;;;18.83;18.02;;;31.30;29.00;;;;;;5031537;28;20188;-87
2023/06/09 11:25:27;;;;;;;19.17;18.27;;;31.40;29.00;;;;;;5022919;28;20203;-88
2023/06/09 11:27:56;;;;;;;18.75;17.95;;;31.50;29.20;;;;;;5031379;28;20204;-87
2023/06/09 11:30:29;;;;;;;19.27;18.33;;;31.80;29.40;;;;;;5029712;28;20211;-87
2023/06/09 11:32:59;;;;;;;20.70;19.83;;;32.10;29.50;;;;;;5031035;28;20298;-88
2023/06/09 11:35:28;;;;;;;20.20;19.27;;;32.30;28.90;;;;;;5029445;28;20185;-89
2023/06/09 11:37:58;;;;;;;20.17;19.38;;;32.30;29.40;;;;;;5028597;28;20222;-89
2023/06/09 11:40:29;;;;;;;20.33;19.52;;;32.30;28.70;;;;;;5027661;28;20291;-88
2023/06/09 11:42:56;;;;;;;20.65;19.75;;;32.40;28.50;;;;;;5034296;28;20219;-89
2023/06/09 11:45:41;;;;;;;20.13;19.23;;;32.30;29.00;;;;;;5023567;28;20229;-88
2023/06/09 11:48:07;;;;;;;21.73;20.88;;;32.30;28.70;;;;;;5031395;28;20537;-88
2023/06/09 11:50:42;;;;;;;21.77;20.77;;;32.80;27.80;;;;;;5025627;28;20272;-90
2023/06/09 11:53:16;;;;;;;20.65;19.75;;;32.70;27.70;;;;;;5020963;28;20180;-89
2023/06/09 11:55:42;;;;;;;22.35;21.55;;;33.10;27.10;;;;;;5031653;28;20189;-87
2023/06/09 11:58:09;;;;;;;23.63;22.60;;;33.50;27.50;;;;;;5029814;28;20983;-89
2023/06/09 12:00:40;;;;;;;23.85;22.60;;;33.50;27.20;;;;;;5027747;28;20578;-87
2023/06/09 12:03:07;;;;;;;21.00;20.10;;;33.20;27.70;;;;;;5031348;28;20193;-89
2023/06/09 12:05:33;;;;;;;21.15;20.27;;;32.60;28.20;;;;;;5030723;28;20547;-87
2023/06/09 12:08:00;;;;;;;21.13;20.27;;;32.60;27.70;;;;;;5028723;28;20244;-89
2023/06/09 12:10:27;;;;;;;21.02;20.05;;;32.80;27.70;;;;;;5032151;28;21155;-87
2023/06/09 12:12:55;;;;;;;20.48;19.67;;;33.00;26.60;;;;;;5032642;28;20169;-88
2023/06/09 12:15:22;;;;;;;21.88;20.88;;;33.10;26.20;;;;;;5029913;28;20181;-88
2023/06/09 12:17:58;;;;;;;21.52;20.63;;;33.50;25.80;;;;;;5031407;28;20315;-89
2023/06/09 12:20:28;;;;;;;23.05;22.15;;;33.90;24.90;;;;;;5031053;28;20192;-89
2023/06/09 12:22:57;;;;;;;22.40;21.50;;;33.80;25.80;;;;;;5032629;28;20184;-88
2023/06/09 12:25:28;;;;;;;22.75;21.85;;;33.40;26.40;;;;;;5031141;28;20188;-88
2023/06/09 12:27:56;;;;;;;21.23;20.33;;;33.60;26.50;;;;;;5028413;28;20215;-88
2023/06/09 12:30:36;;;;;;;22.48;21.55;;;33.70;25.50;;;;;;5030561;28;20382;-88
2023/06/09 12:33:08;;;;;;;22.55;21.55;;;33.60;26.60;;;;;;5033174;28;20183;-87
2023/06/09 12:35:41;;;;;;;22.30;21.40;;;33.80;26.40;;;;;;5033827;28;20200;-88
2023/06/09 12:38:14;;;;;;;22.75;21.85;;;33.70;25.80;;;;;;5030645;28;20222;-89
2023/06/09 12:40:53;;;;;;;23.83;22.85;;;34.20;25.00;;;;;;5025283;28;20562;-85
2023/06/09 12:43:21;;;;;;;23.50;22.60;;;34.80;25.00;;;;;;5028843;28;20212;-88
2023/06/09 12:45:48;;;;;;;23.98;22.88;;;34.60;26.70;;;;;;5027888;28;20192;-87